sensor_id;sensor_type;location;lat;lon;timestamp;P1;durP1;ratioP1;P2;durP2;ratioP2
55065;SDS011;40964;42.114;24.220;2023-05-10T00:00:39;14.38;;;8.35;;
55065;SDS011;40964;42.114;24.220;2023-05-10T00:03:04;18.73;;;10.20;;
55065;SDS011;40964;42.114;24.220;2023-05-10T00:05:30;12.32;;;7.15;;
55065;SDS011;40964;42.114;24.220;2023-05-10T00:07:56;12.15;;;6.97;;
55065;SDS011;40964;42.114;24.220;2023-05-10T00:10:22;11.60;;;7.05;;
55065;SDS011;40964;42.114;24.220;2023-05-10T00:12:47;12.57;;;7.82;;
55065;SDS011;40964;42.114;24.220;2023-05-10T00:15:13;18.98;;;7.72;;
55065;SDS011;40964;42.114;24.220;2023-05-10T00:17:38;16.17;;;7.72;;
55065;SDS011;40964;42.114;24.220;2023-05-10T00:20:04;12.98;;;7.10;;
55065;SDS011;40964;42.114;24.220;2023-05-10T00:22:31;14.68;;;7.97;;
55065;SDS011;40964;42.114;24.220;2023-05-10T00:24:57;13.95;;;7.75;;
55065;SDS011;40964;42.114;24.220;2023-05-10T00:27:22;12.02;;;7.78;;
55065;SDS011;40964;42.114;24.220;2023-05-10T00:29:48;13.23;;;7.72;;
55065;SDS011;40964;42.114;24.220;2023-05-10T00:32:13;14.18;;;6.93;;
55065;SDS011;40964;42.114;24.220;2023-05-10T00:34:39;11.57;;;6.72;;
55065;SDS011;40964;42.114;24.220;2023-05-10T00:37:04;14.40;;;7.13;;
55065;SDS011;40964;42.114;24.220;2023-05-10T00:39:30;13.35;;;6.55;;
55065;SDS011;40964;42.114;24.220;2023-05-10T00:41:56;14.65;;;7.32;;
55065;SDS011;40964;42.114;24.220;2023-05-10T00:44:21;14.27;;;7.82;;
55065;SDS011;40964;42.114;24.220;2023-05-10T00:46:47;20.30;;;8.52;;
55065;SDS011;40964;42.114;24.220;2023-05-10T00:49:13;16.55;;;8.30;;
55065;SDS011;40964;42.114;24.220;2023-05-10T00:51:38;16.67;;;8.77;;
55065;SDS011;40964;42.114;24.220;2023-05-10T00:54:04;13.20;;;8.18;;
55065;SDS011;40964;42.114;24.220;2023-05-10T00:56:30;16.65;;;7.82;;
55065;SDS011;40964;42.114;24.220;2023-05-10T00:58:55;13.43;;;7.82;;
55065;SDS011;40964;42.114;24.220;2023-05-10T01:01:22;16.13;;;7.80;;
55065;SDS011;40964;42.114;24.220;2023-05-10T01:03:48;16.98;;;8.25;;
55065;SDS011;40964;42.114;24.220;2023-05-10T01:06:13;13.80;;;8.10;;
55065;SDS011;40964;42.114;24.220;2023-05-10T01:08:39;16.05;;;8.05;;
55065;SDS011;40964;42.114;24.220;2023-05-10T01:11:05;13.25;;;7.18;;
55065;SDS011;40964;42.114;24.220;2023-05-10T01:16:02;16.70;;;7.63;;
55065;SDS011;40964;42.114;24.220;2023-05-10T01:18:29;13.63;;;7.47;;
55065;SDS011;40964;42.114;24.220;2023-05-10T01:26:33;12.75;;;7.47;;
55065;SDS011;40964;42.114;24.220;2023-05-10T01:29:24;14.43;;;7.32;;
55065;SDS011;40964;42.114;24.220;2023-05-10T01:32:28;11.65;;;7.05;;
55065;SDS011;40964;42.114;24.220;2023-05-10T01:35:16;15.23;;;8.00;;
55065;SDS011;40964;42.114;24.220;2023-05-10T01:45:52;19.63;;;8.93;;
55065;SDS011;40964;42.114;24.220;2023-05-10T01:48:21;16.23;;;8.27;;
55065;SDS011;40964;42.114;24.220;2023-05-10T01:50:48;19.73;;;8.98;;
55065;SDS011;40964;42.114;24.220;2023-05-10T01:53:17;15.38;;;8.82;;
55065;SDS011;40964;42.114;24.220;2023-05-10T01:55:48;15.38;;;8.85;;
55065;SDS011;40964;42.114;24.220;2023-05-10T01:58:20;17.65;;;9.13;;
55065;SDS011;40964;42.114;24.220;2023-05-10T02:00:49;17.83;;;9.40;;
55065;SDS011;40964;42.114;24.220;2023-05-10T02:03:16;19.60;;;9.10;;
55065;SDS011;40964;42.114;24.220;2023-05-10T02:05:45;20.77;;;8.98;;
55065;SDS011;40964;42.114;24.220;2023-05-10T02:08:13;16.60;;;8.90;;
55065;SDS011;40964;42.114;24.220;2023-05-10T02:10:40;17.92;;;9.07;;
55065;SDS011;40964;42.114;24.220;2023-05-10T02:13:07;21.23;;;9.98;;
55065;SDS011;40964;42.114;24.220;2023-05-10T02:15:35;18.38;;;10.15;;
55065;SDS011;40964;42.114;24.220;2023-05-10T02:18:02;21.15;;;9.70;;
55065;SDS011;40964;42.114;24.220;2023-05-10T02:20:29;19.90;;;10.43;;
55065;SDS011;40964;42.114;24.220;2023-05-10T02:22:57;18.15;;;9.68;;
55065;SDS011;40964;42.114;24.220;2023-05-10T02:25:23;18.20;;;10.23;;
55065;SDS011;40964;42.114;24.220;2023-05-10T02:27:49;18.63;;;9.48;;
55065;SDS011;40964;42.114;24.220;2023-05-10T02:30:16;20.70;;;9.07;;
55065;SDS011;40964;42.114;24.220;2023-05-10T02:32:43;14.23;;;7.90;;
55065;SDS011;40964;42.114;24.220;2023-05-10T02:35:10;17.70;;;8.50;;
55065;SDS011;40964;42.114;24.220;2023-05-10T02:37:39;18.00;;;9.05;;
55065;SDS011;40964;42.114;24.220;2023-05-10T02:40:05;19.13;;;8.73;;
55065;SDS011;40964;42.114;24.220;2023-05-10T02:42:33;14.32;;;8.23;;
55065;SDS011;40964;42.114;24.220;2023-05-10T02:45:02;15.38;;;7.90;;
55065;SDS011;40964;42.114;24.220;2023-05-10T02:47:33;15.43;;;8.00;;
55065;SDS011;40964;42.114;24.220;2023-05-10T02:49:59;16.48;;;8.55;;
55065;SDS011;40964;42.114;24.220;2023-05-10T02:52:25;16.92;;;8.50;;
55065;SDS011;40964;42.114;24.220;2023-05-10T02:54:55;15.60;;;8.75;;
55065;SDS011;40964;42.114;24.220;2023-05-10T02:57:27;15.98;;;8.80;;
55065;SDS011;40964;42.114;24.220;2023-05-10T02:59:56;19.20;;;8.73;;
55065;SDS011;40964;42.114;24.220;2023-05-10T03:02:22;16.45;;;8.68;;
55065;SDS011;40964;42.114;24.220;2023-05-10T03:04:48;22.73;;;9.32;;
55065;SDS011;40964;42.114;24.220;2023-05-10T03:07:13;17.95;;;9.02;;
55065;SDS011;40964;42.114;24.220;2023-05-10T03:09:39;18.92;;;9.48;;
55065;SDS011;40964;42.114;24.220;2023-05-10T03:12:12;20.02;;;9.30;;
55065;SDS011;40964;42.114;24.220;2023-05-10T03:22:23;17.20;;;9.35;;
55065;SDS011;40964;42.114;24.220;2023-05-10T03:24:53;17.88;;;8.30;;
55065;SDS011;40964;42.114;24.220;2023-05-10T03:27:22;20.77;;;8.48;;
55065;SDS011;40964;42.114;24.220;2023-05-10T03:29:50;20.90;;;9.18;;
55065;SDS011;40964;42.114;24.220;2023-05-10T03:32:17;17.90;;;8.88;;
55065;SDS011;40964;42.114;24.220;2023-05-10T03:34:42;22.38;;;8.35;;
55065;SDS011;40964;42.114;24.220;2023-05-10T03:37:10;18.30;;;9.13;;
55065;SDS011;40964;42.114;24.220;2023-05-10T03:39:36;16.67;;;8.18;;
55065;SDS011;40964;42.114;24.220;2023-05-10T03:42:01;17.35;;;8.00;;
55065;SDS011;40964;42.114;24.220;2023-05-10T03:44:27;18.13;;;8.20;;
55065;SDS011;40964;42.114;24.220;2023-05-10T03:46:52;13.73;;;7.80;;
55065;SDS011;40964;42.114;24.220;2023-05-10T03:49:18;16.00;;;8.55;;
55065;SDS011;40964;42.114;24.220;2023-05-10T03:51:43;16.75;;;7.97;;
55065;SDS011;40964;42.114;24.220;2023-05-10T03:54:08;15.52;;;7.88;;
55065;SDS011;40964;42.114;24.220;2023-05-10T03:56:34;14.55;;;8.35;;
55065;SDS011;40964;42.114;24.220;2023-05-10T03:58:59;13.45;;;7.63;;
55065;SDS011;40964;42.114;24.220;2023-05-10T04:01:25;17.00;;;8.02;;
55065;SDS011;40964;42.114;24.220;2023-05-10T04:03:51;23.45;;;9.63;;
55065;SDS011;40964;42.114;24.220;2023-05-10T04:06:16;18.42;;;8.40;;
55065;SDS011;40964;42.114;24.220;2023-05-10T04:08:42;18.10;;;8.45;;
55065;SDS011;40964;42.114;24.220;2023-05-10T04:11:08;14.40;;;7.22;;
55065;SDS011;40964;42.114;24.220;2023-05-10T04:13:34;14.05;;;7.72;;
55065;SDS011;40964;42.114;24.220;2023-05-10T04:16:00;15.07;;;8.05;;
55065;SDS011;40964;42.114;24.220;2023-05-10T04:18:26;16.00;;;8.85;;
55065;SDS011;40964;42.114;24.220;2023-05-10T04:20:52;14.15;;;8.15;;
55065;SDS011;40964;42.114;24.220;2023-05-10T04:23:17;17.00;;;7.88;;
55065;SDS011;40964;42.114;24.220;2023-05-10T04:25:42;16.15;;;8.30;;
55065;SDS011;40964;42.114;24.220;2023-05-10T04:28:08;17.67;;;8.27;;
55065;SDS011;40964;42.114;24.220;2023-05-10T04:30:34;17.95;;;7.70;;
55065;SDS011;40964;42.114;24.220;2023-05-10T04:33:00;16.80;;;7.93;;
55065;SDS011;40964;42.114;24.220;2023-05-10T04:35:27;16.23;;;7.88;;
55065;SDS011;40964;42.114;24.220;2023-05-10T04:37:53;16.05;;;8.45;;
55065;SDS011;40964;42.114;24.220;2023-05-10T04:40:18;14.75;;;8.05;;
55065;SDS011;40964;42.114;24.220;2023-05-10T04:42:44;13.70;;;7.90;;
55065;SDS011;40964;42.114;24.220;2023-05-10T04:45:10;17.17;;;8.63;;
55065;SDS011;40964;42.114;24.220;2023-05-10T04:47:36;16.67;;;7.93;;
55065;SDS011;40964;42.114;24.220;2023-05-10T04:50:02;15.45;;;8.45;;
55065;SDS011;40964;42.114;24.220;2023-05-10T04:52:29;16.98;;;9.05;;
55065;SDS011;40964;42.114;24.220;2023-05-10T04:54:54;18.13;;;8.05;;
55065;SDS011;40964;42.114;24.220;2023-05-10T04:57:20;16.00;;;8.43;;
55065;SDS011;40964;42.114;24.220;2023-05-10T04:59:45;15.88;;;8.50;;
55065;SDS011;40964;42.114;24.220;2023-05-10T05:02:10;19.88;;;9.27;;
55065;SDS011;40964;42.114;24.220;2023-05-10T05:04:36;20.02;;;9.85;;
55065;SDS011;40964;42.114;24.220;2023-05-10T05:07:01;16.48;;;8.45;;
55065;SDS011;40964;42.114;24.220;2023-05-10T05:09:27;16.55;;;8.88;;
55065;SDS011;40964;42.114;24.220;2023-05-10T05:11:52;18.35;;;9.82;;
55065;SDS011;40964;42.114;24.220;2023-05-10T05:14:18;17.40;;;10.07;;
55065;SDS011;40964;42.114;24.220;2023-05-10T05:16:45;21.23;;;9.88;;
55065;SDS011;40964;42.114;24.220;2023-05-10T05:19:11;17.85;;;8.98;;
55065;SDS011;40964;42.114;24.220;2023-05-10T05:21:36;17.30;;;9.85;;
55065;SDS011;40964;42.114;24.220;2023-05-10T05:24:02;37.70;;;12.40;;
55065;SDS011;40964;42.114;24.220;2023-05-10T05:26:28;19.65;;;9.73;;
55065;SDS011;40964;42.114;24.220;2023-05-10T05:28:53;18.30;;;10.15;;
55065;SDS011;40964;42.114;24.220;2023-05-10T05:31:19;22.65;;;11.57;;
55065;SDS011;40964;42.114;24.220;2023-05-10T05:33:45;24.42;;;12.98;;
55065;SDS011;40964;42.114;24.220;2023-05-10T05:36:11;27.15;;;13.50;;
55065;SDS011;40964;42.114;24.220;2023-05-10T05:38:36;22.17;;;9.75;;
55065;SDS011;40964;42.114;24.220;2023-05-10T05:41:02;19.13;;;9.57;;
55065;SDS011;40964;42.114;24.220;2023-05-10T05:43:28;17.23;;;9.68;;
55065;SDS011;40964;42.114;24.220;2023-05-10T05:45:53;20.05;;;10.60;;
55065;SDS011;40964;42.114;24.220;2023-05-10T05:48:19;19.85;;;11.20;;
55065;SDS011;40964;42.114;24.220;2023-05-10T05:50:45;16.10;;;9.40;;
55065;SDS011;40964;42.114;24.220;2023-05-10T05:53:11;18.38;;;9.65;;
55065;SDS011;40964;42.114;24.220;2023-05-10T05:55:36;20.25;;;10.13;;
55065;SDS011;40964;42.114;24.220;2023-05-10T05:58:02;18.27;;;10.15;;
55065;SDS011;40964;42.114;24.220;2023-05-10T06:00:28;18.83;;;10.32;;
55065;SDS011;40964;42.114;24.220;2023-05-10T06:02:53;25.73;;;9.90;;
55065;SDS011;40964;42.114;24.220;2023-05-10T06:05:18;18.52;;;10.18;;
55065;SDS011;40964;42.114;24.220;2023-05-10T06:07:45;18.58;;;9.82;;
55065;SDS011;40964;42.114;24.220;2023-05-10T06:10:11;22.88;;;10.65;;
55065;SDS011;40964;42.114;24.220;2023-05-10T06:12:36;23.08;;;11.57;;
55065;SDS011;40964;42.114;24.220;2023-05-10T06:15:02;24.83;;;11.77;;
55065;SDS011;40964;42.114;24.220;2023-05-10T06:17:28;25.40;;;12.77;;
55065;SDS011;40964;42.114;24.220;2023-05-10T06:19:54;29.40;;;12.18;;
55065;SDS011;40964;42.114;24.220;2023-05-10T06:22:19;28.35;;;12.68;;
55065;SDS011;40964;42.114;24.220;2023-05-10T06:24:46;21.33;;;11.50;;
55065;SDS011;40964;42.114;24.220;2023-05-10T06:27:12;23.30;;;11.13;;
55065;SDS011;40964;42.114;24.220;2023-05-10T06:29:37;25.50;;;11.63;;
55065;SDS011;40964;42.114;24.220;2023-05-10T06:32:03;25.17;;;11.00;;
55065;SDS011;40964;42.114;24.220;2023-05-10T06:34:28;22.58;;;11.88;;
55065;SDS011;40964;42.114;24.220;2023-05-10T06:36:54;21.67;;;12.25;;
55065;SDS011;40964;42.114;24.220;2023-05-10T06:39:19;21.65;;;11.02;;
55065;SDS011;40964;42.114;24.220;2023-05-10T06:41:45;23.58;;;11.88;;
55065;SDS011;40964;42.114;24.220;2023-05-10T06:44:10;19.83;;;10.90;;
55065;SDS011;40964;42.114;24.220;2023-05-10T06:46:35;22.75;;;11.30;;
55065;SDS011;40964;42.114;24.220;2023-05-10T06:49:01;21.77;;;11.35;;
55065;SDS011;40964;42.114;24.220;2023-05-10T06:51:27;24.25;;;12.55;;
55065;SDS011;40964;42.114;24.220;2023-05-10T06:53:52;24.80;;;11.98;;
55065;SDS011;40964;42.114;24.220;2023-05-10T06:56:18;20.63;;;11.15;;
55065;SDS011;40964;42.114;24.220;2023-05-10T06:58:46;25.92;;;11.60;;
55065;SDS011;40964;42.114;24.220;2023-05-10T07:01:12;26.20;;;12.65;;
55065;SDS011;40964;42.114;24.220;2023-05-10T07:03:37;19.95;;;12.15;;
55065;SDS011;40964;42.114;24.220;2023-05-10T07:06:03;24.58;;;12.20;;
55065;SDS011;40964;42.114;24.220;2023-05-10T07:08:32;22.00;;;12.48;;
55065;SDS011;40964;42.114;24.220;2023-05-10T07:11:04;19.25;;;11.20;;
55065;SDS011;40964;42.114;24.220;2023-05-10T07:13:32;22.95;;;11.63;;
55065;SDS011;40964;42.114;24.220;2023-05-10T07:15:58;25.45;;;11.55;;
55065;SDS011;40964;42.114;24.220;2023-05-10T07:18:24;22.20;;;10.90;;
55065;SDS011;40964;42.114;24.220;2023-05-10T07:20:50;19.92;;;10.43;;
55065;SDS011;40964;42.114;24.220;2023-05-10T07:23:16;19.60;;;10.50;;
55065;SDS011;40964;42.114;24.220;2023-05-10T07:25:47;18.73;;;10.30;;
55065;SDS011;40964;42.114;24.220;2023-05-10T07:28:14;22.98;;;11.18;;
55065;SDS011;40964;42.114;24.220;2023-05-10T07:30:41;19.15;;;10.45;;
55065;SDS011;40964;42.114;24.220;2023-05-10T07:33:25;21.80;;;11.23;;
55065;SDS011;40964;42.114;24.220;2023-05-10T07:36:09;22.00;;;11.48;;
55065;SDS011;40964;42.114;24.220;2023-05-10T07:38:35;18.33;;;10.38;;
55065;SDS011;40964;42.114;24.220;2023-05-10T07:41:01;21.02;;;10.77;;
55065;SDS011;40964;42.114;24.220;2023-05-10T07:43:26;19.17;;;10.73;;
55065;SDS011;40964;42.114;24.220;2023-05-10T07:45:51;20.50;;;10.27;;
55065;SDS011;40964;42.114;24.220;2023-05-10T07:48:17;21.58;;;10.50;;
55065;SDS011;40964;42.114;24.220;2023-05-10T07:50:42;20.60;;;10.88;;
55065;SDS011;40964;42.114;24.220;2023-05-10T07:53:08;20.52;;;9.90;;
55065;SDS011;40964;42.114;24.220;2023-05-10T07:55:34;20.25;;;11.15;;
55065;SDS011;40964;42.114;24.220;2023-05-10T07:58:00;23.83;;;11.65;;
55065;SDS011;40964;42.114;24.220;2023-05-10T08:00:26;22.60;;;11.80;;
55065;SDS011;40964;42.114;24.220;2023-05-10T08:02:51;20.73;;;11.13;;
55065;SDS011;40964;42.114;24.220;2023-05-10T08:05:17;24.38;;;11.00;;
55065;SDS011;40964;42.114;24.220;2023-05-10T08:07:43;21.30;;;10.55;;
55065;SDS011;40964;42.114;24.220;2023-05-10T08:10:09;25.67;;;13.82;;
55065;SDS011;40964;42.114;24.220;2023-05-10T08:12:36;20.30;;;11.75;;
55065;SDS011;40964;42.114;24.220;2023-05-10T08:15:01;20.20;;;10.00;;
55065;SDS011;40964;42.114;24.220;2023-05-10T08:17:28;19.52;;;12.00;;
55065;SDS011;40964;42.114;24.220;2023-05-10T08:19:53;21.25;;;10.82;;
55065;SDS011;40964;42.114;24.220;2023-05-10T08:22:19;23.15;;;11.20;;
55065;SDS011;40964;42.114;24.220;2023-05-10T08:24:44;22.80;;;11.80;;
55065;SDS011;40964;42.114;24.220;2023-05-10T08:27:10;18.85;;;11.43;;
55065;SDS011;40964;42.114;24.220;2023-05-10T08:29:36;19.45;;;11.05;;
55065;SDS011;40964;42.114;24.220;2023-05-10T08:32:02;20.30;;;11.65;;
55065;SDS011;40964;42.114;24.220;2023-05-10T08:34:28;20.95;;;10.65;;
55065;SDS011;40964;42.114;24.220;2023-05-10T08:36:53;19.27;;;10.85;;
55065;SDS011;40964;42.114;24.220;2023-05-10T08:39:19;20.90;;;10.65;;
55065;SDS011;40964;42.114;24.220;2023-05-10T08:41:45;24.67;;;11.85;;
55065;SDS011;40964;42.114;24.220;2023-05-10T08:44:13;19.08;;;10.95;;
55065;SDS011;40964;42.114;24.220;2023-05-10T08:46:40;20.75;;;11.23;;
55065;SDS011;40964;42.114;24.220;2023-05-10T08:49:10;18.95;;;11.32;;
55065;SDS011;40964;42.114;24.220;2023-05-10T08:51:41;22.58;;;11.00;;
55065;SDS011;40964;42.114;24.220;2023-05-10T08:54:12;18.63;;;11.18;;
55065;SDS011;40964;42.114;24.220;2023-05-10T08:56:38;22.23;;;12.25;;
55065;SDS011;40964;42.114;24.220;2023-05-10T08:59:03;25.52;;;13.13;;
55065;SDS011;40964;42.114;24.220;2023-05-10T09:01:29;25.70;;;12.82;;
55065;SDS011;40964;42.114;24.220;2023-05-10T09:03:56;19.70;;;11.82;;
55065;SDS011;40964;42.114;24.220;2023-05-10T09:06:23;18.90;;;11.68;;
55065;SDS011;40964;42.114;24.220;2023-05-10T09:08:49;19.73;;;11.05;;
55065;SDS011;40964;42.114;24.220;2023-05-10T09:11:15;17.77;;;10.85;;
55065;SDS011;40964;42.114;24.220;2023-05-10T09:13:42;22.05;;;12.48;;
55065;SDS011;40964;42.114;24.220;2023-05-10T09:16:08;20.17;;;12.35;;
55065;SDS011;40964;42.114;24.220;2023-05-10T09:18:34;20.77;;;11.60;;
55065;SDS011;40964;42.114;24.220;2023-05-10T09:20:59;24.67;;;12.35;;
55065;SDS011;40964;42.114;24.220;2023-05-10T09:23:25;20.13;;;12.20;;
55065;SDS011;40964;42.114;24.220;2023-05-10T09:26:06;22.35;;;12.25;;
55065;SDS011;40964;42.114;24.220;2023-05-10T09:28:49;21.80;;;10.85;;
55065;SDS011;40964;42.114;24.220;2023-05-10T09:31:16;19.05;;;10.85;;
55065;SDS011;40964;42.114;24.220;2023-05-10T09:33:45;18.52;;;11.55;;
55065;SDS011;40964;42.114;24.220;2023-05-10T09:36:11;17.25;;;11.05;;
55065;SDS011;40964;42.114;24.220;2023-05-10T09:38:50;19.90;;;10.27;;
55065;SDS011;40964;42.114;24.220;2023-05-10T09:41:23;16.17;;;9.77;;
55065;SDS011;40964;42.114;24.220;2023-05-10T09:43:50;17.00;;;10.55;;
55065;SDS011;40964;42.114;24.220;2023-05-10T09:46:20;20.17;;;11.80;;
55065;SDS011;40964;42.114;24.220;2023-05-10T09:48:46;16.33;;;9.85;;
55065;SDS011;40964;42.114;24.220;2023-05-10T09:51:23;19.88;;;11.38;;
55065;SDS011;40964;42.114;24.220;2023-05-10T09:56:41;19.75;;;10.10;;
55065;SDS011;40964;42.114;24.220;2023-05-10T09:59:10;18.05;;;10.13;;
55065;SDS011;40964;42.114;24.220;2023-05-10T10:01:37;17.55;;;10.32;;
55065;SDS011;40964;42.114;24.220;2023-05-10T10:04:06;17.88;;;9.88;;
55065;SDS011;40964;42.114;24.220;2023-05-10T10:06:40;18.08;;;10.63;;
55065;SDS011;40964;42.114;24.220;2023-05-10T10:09:06;18.48;;;10.25;;
55065;SDS011;40964;42.114;24.220;2023-05-10T10:11:33;16.55;;;10.07;;
55065;SDS011;40964;42.114;24.220;2023-05-10T10:14:00;21.95;;;12.32;;
55065;SDS011;40964;42.114;24.220;2023-05-10T10:16:26;14.32;;;9.02;;
55065;SDS011;40964;42.114;24.220;2023-05-10T10:18:53;19.30;;;9.68;;
55065;SDS011;40964;42.114;24.220;2023-05-10T10:21:19;13.82;;;9.07;;
55065;SDS011;40964;42.114;24.220;2023-05-10T10:23:46;15.65;;;8.88;;
55065;SDS011;40964;42.114;24.220;2023-05-10T10:26:11;14.35;;;8.52;;
55065;SDS011;40964;42.114;24.220;2023-05-10T10:31:32;12.73;;;8.63;;
55065;SDS011;40964;42.114;24.220;2023-05-10T10:34:08;13.13;;;8.40;;
55065;SDS011;40964;42.114;24.220;2023-05-10T10:36:43;17.42;;;9.65;;
55065;SDS011;40964;42.114;24.220;2023-05-10T10:39:10;17.48;;;10.23;;
55065;SDS011;40964;42.114;24.220;2023-05-10T10:41:50;17.48;;;11.07;;
55065;SDS011;40964;42.114;24.220;2023-05-10T10:44:24;18.05;;;11.95;;
55065;SDS011;40964;42.114;24.220;2023-05-10T10:46:58;15.50;;;8.88;;
55065;SDS011;40964;42.114;24.220;2023-05-10T10:49:34;17.08;;;9.52;;
55065;SDS011;40964;42.114;24.220;2023-05-10T10:52:26;16.77;;;9.15;;
55065;SDS011;40964;42.114;24.220;2023-05-10T11:02:50;15.82;;;10.05;;
55065;SDS011;40964;42.114;24.220;2023-05-10T11:07:56;14.52;;;9.77;;
55065;SDS011;40964;42.114;24.220;2023-05-10T11:10:23;15.63;;;9.27;;
55065;SDS011;40964;42.114;24.220;2023-05-10T11:15:36;16.63;;;9.55;;
55065;SDS011;40964;42.114;24.220;2023-05-10T11:18:23;18.77;;;10.82;;
55065;SDS011;40964;42.114;24.220;2023-05-10T11:23:31;19.70;;;9.40;;
55065;SDS011;40964;42.114;24.220;2023-05-10T11:26:12;20.25;;;10.40;;
55065;SDS011;40964;42.114;24.220;2023-05-10T11:28:41;19.00;;;9.52;;
55065;SDS011;40964;42.114;24.220;2023-05-10T11:31:13;19.00;;;10.25;;
55065;SDS011;40964;42.114;24.220;2023-05-10T11:33:45;18.33;;;10.23;;
55065;SDS011;40964;42.114;24.220;2023-05-10T11:36:16;19.60;;;12.13;;
55065;SDS011;40964;42.114;24.220;2023-05-10T11:38:41;23.02;;;13.55;;
55065;SDS011;40964;42.114;24.220;2023-05-10T11:41:08;16.40;;;10.32;;
55065;SDS011;40964;42.114;24.220;2023-05-10T11:43:36;25.98;;;9.93;;
55065;SDS011;40964;42.114;24.220;2023-05-10T11:46:04;14.95;;;9.52;;
55065;SDS011;40964;42.114;24.220;2023-05-10T11:48:31;68.63;;;27.73;;
55065;SDS011;40964;42.114;24.220;2023-05-10T11:50:57;25.63;;;14.00;;
55065;SDS011;40964;42.114;24.220;2023-05-10T11:53:23;24.02;;;11.70;;
55065;SDS011;40964;42.114;24.220;2023-05-10T11:55:51;23.90;;;11.48;;
55065;SDS011;40964;42.114;24.220;2023-05-10T11:58:17;20.38;;;10.95;;
55065;SDS011;40964;42.114;24.220;2023-05-10T12:00:43;21.98;;;10.48;;
55065;SDS011;40964;42.114;24.220;2023-05-10T12:03:10;18.23;;;10.23;;
55065;SDS011;40964;42.114;24.220;2023-05-10T12:05:36;14.75;;;9.38;;
55065;SDS011;40964;42.114;24.220;2023-05-10T12:08:14;12.80;;;8.90;;
55065;SDS011;40964;42.114;24.220;2023-05-10T12:10:41;20.80;;;10.77;;
55065;SDS011;40964;42.114;24.220;2023-05-10T12:13:13;21.40;;;9.90;;
55065;SDS011;40964;42.114;24.220;2023-05-10T12:15:42;16.83;;;9.55;;
55065;SDS011;40964;42.114;24.220;2023-05-10T12:18:11;14.85;;;9.77;;
55065;SDS011;40964;42.114;24.220;2023-05-10T12:20:38;16.77;;;9.43;;
55065;SDS011;40964;42.114;24.220;2023-05-10T12:23:04;17.20;;;11.07;;
55065;SDS011;40964;42.114;24.220;2023-05-10T12:25:34;20.38;;;11.68;;
55065;SDS011;40964;42.114;24.220;2023-05-10T12:28:02;18.23;;;11.30;;
55065;SDS011;40964;42.114;24.220;2023-05-10T12:30:30;19.95;;;12.32;;
55065;SDS011;40964;42.114;24.220;2023-05-10T12:33:08;23.05;;;12.00;;
55065;SDS011;40964;42.114;24.220;2023-05-10T12:35:48;22.77;;;12.98;;
55065;SDS011;40964;42.114;24.220;2023-05-10T12:38:25;18.63;;;11.35;;
55065;SDS011;40964;42.114;24.220;2023-05-10T12:40:57;18.02;;;11.02;;
55065;SDS011;40964;42.114;24.220;2023-05-10T12:43:29;22.48;;;11.50;;
55065;SDS011;40964;42.114;24.220;2023-05-10T12:45:55;19.63;;;12.02;;
55065;SDS011;40964;42.114;24.220;2023-05-10T12:48:21;20.10;;;12.10;;
55065;SDS011;40964;42.114;24.220;2023-05-10T12:50:47;20.33;;;12.63;;
55065;SDS011;40964;42.114;24.220;2023-05-10T12:53:13;21.40;;;12.48;;
55065;SDS011;40964;42.114;24.220;2023-05-10T12:55:40;17.70;;;10.75;;
55065;SDS011;40964;42.114;24.220;2023-05-10T12:58:09;24.23;;;12.05;;
55065;SDS011;40964;42.114;24.220;2023-05-10T13:00:35;17.63;;;11.43;;
55065;SDS011;40964;42.114;24.220;2023-05-10T13:03:03;19.63;;;10.93;;
55065;SDS011;40964;42.114;24.220;2023-05-10T13:05:30;19.33;;;11.63;;
55065;SDS011;40964;42.114;24.220;2023-05-10T13:07:56;19.33;;;11.82;;
55065;SDS011;40964;42.114;24.220;2023-05-10T13:10:21;21.13;;;12.75;;
55065;SDS011;40964;42.114;24.220;2023-05-10T13:12:48;24.67;;;13.60;;
55065;SDS011;40964;42.114;24.220;2023-05-10T13:15:14;32.40;;;16.55;;
55065;SDS011;40964;42.114;24.220;2023-05-10T13:17:39;26.30;;;12.77;;
55065;SDS011;40964;42.114;24.220;2023-05-10T13:20:05;18.00;;;10.88;;
55065;SDS011;40964;42.114;24.220;2023-05-10T13:22:31;16.67;;;10.50;;
55065;SDS011;40964;42.114;24.220;2023-05-10T13:24:57;18.33;;;10.73;;
55065;SDS011;40964;42.114;24.220;2023-05-10T13:27:22;17.02;;;10.80;;
55065;SDS011;40964;42.114;24.220;2023-05-10T13:29:47;17.70;;;10.90;;
55065;SDS011;40964;42.114;24.220;2023-05-10T13:32:13;16.67;;;11.02;;
55065;SDS011;40964;42.114;24.220;2023-05-10T13:34:38;21.45;;;10.95;;
55065;SDS011;40964;42.114;24.220;2023-05-10T13:37:04;17.67;;;11.05;;
55065;SDS011;40964;42.114;24.220;2023-05-10T13:39:29;17.08;;;10.45;;
55065;SDS011;40964;42.114;24.220;2023-05-10T13:41:58;20.75;;;11.27;;
55065;SDS011;40964;42.114;24.220;2023-05-10T13:46:58;18.15;;;10.55;;
55065;SDS011;40964;42.114;24.220;2023-05-10T13:49:23;17.80;;;9.70;;
55065;SDS011;40964;42.114;24.220;2023-05-10T13:51:49;15.18;;;10.27;;
55065;SDS011;40964;42.114;24.220;2023-05-10T13:54:14;15.88;;;10.18;;
55065;SDS011;40964;42.114;24.220;2023-05-10T13:56:41;16.65;;;9.93;;
55065;SDS011;40964;42.114;24.220;2023-05-10T13:59:07;18.95;;;10.38;;
55065;SDS011;40964;42.114;24.220;2023-05-10T14:01:33;21.77;;;10.60;;
55065;SDS011;40964;42.114;24.220;2023-05-10T14:03:59;17.30;;;10.75;;
55065;SDS011;40964;42.114;24.220;2023-05-10T14:06:24;19.83;;;10.80;;
55065;SDS011;40964;42.114;24.220;2023-05-10T14:08:50;19.27;;;10.95;;
55065;SDS011;40964;42.114;24.220;2023-05-10T14:11:15;17.52;;;10.55;;
55065;SDS011;40964;42.114;24.220;2023-05-10T14:13:41;18.38;;;10.20;;
55065;SDS011;40964;42.114;24.220;2023-05-10T14:16:06;17.63;;;10.82;;
55065;SDS011;40964;42.114;24.220;2023-05-10T14:18:32;13.82;;;9.73;;
55065;SDS011;40964;42.114;24.220;2023-05-10T14:20:57;14.15;;;9.75;;
55065;SDS011;40964;42.114;24.220;2023-05-10T14:23:23;17.83;;;10.20;;
55065;SDS011;40964;42.114;24.220;2023-05-10T14:25:53;14.20;;;9.43;;
55065;SDS011;40964;42.114;24.220;2023-05-10T14:28:19;19.88;;;10.85;;
55065;SDS011;40964;42.114;24.220;2023-05-10T14:30:45;16.58;;;10.68;;
55065;SDS011;40964;42.114;24.220;2023-05-10T14:33:11;19.65;;;10.75;;
55065;SDS011;40964;42.114;24.220;2023-05-10T14:35:37;14.73;;;9.65;;
55065;SDS011;40964;42.114;24.220;2023-05-10T14:38:02;15.73;;;8.55;;
55065;SDS011;40964;42.114;24.220;2023-05-10T14:40:31;15.38;;;9.70;;
55065;SDS011;40964;42.114;24.220;2023-05-10T14:42:57;19.20;;;11.25;;
55065;SDS011;40964;42.114;24.220;2023-05-10T14:45:22;19.15;;;10.63;;
55065;SDS011;40964;42.114;24.220;2023-05-10T14:47:48;16.98;;;9.88;;
55065;SDS011;40964;42.114;24.220;2023-05-10T14:50:14;15.32;;;9.88;;
55065;SDS011;40964;42.114;24.220;2023-05-10T14:52:40;19.13;;;10.38;;
55065;SDS011;40964;42.114;24.220;2023-05-10T14:55:05;16.00;;;10.07;;
55065;SDS011;40964;42.114;24.220;2023-05-10T14:57:31;16.83;;;10.80;;
55065;SDS011;40964;42.114;24.220;2023-05-10T14:59:57;25.52;;;12.25;;
55065;SDS011;40964;42.114;24.220;2023-05-10T15:02:25;16.58;;;9.63;;
55065;SDS011;40964;42.114;24.220;2023-05-10T15:04:51;15.80;;;9.23;;